TimeMDT,TemperatureF,Dew PointF,Humidity,Sea Level PressureIn,VisibilityMPH,Wind Direction,Wind SpeedMPH,Gust SpeedMPH,PrecipitationIn,Events,Conditions,WindDirDegrees,DateUTC
12:53 AM,61.0,51.1,70,30.02,10.0,ESE,5.8,-,N/A,,Clear,120,2013-07-10 06:53:00
1:53 AM,54.0,46.9,77,30.04,10.0,SSW,8.1,-,N/A,,Clear,200,2013-07-10 07:53:00
2:53 AM,55.0,48.0,77,30.02,10.0,SSW,10.4,-,N/A,,Clear,210,2013-07-10 08:53:00
3:53 AM,50.0,46.0,86,30.02,10.0,WSW,3.5,-,N/A,,Clear,240,2013-07-10 09:53:00
4:53 AM,50.0,46.9,89,30.02,10.0,SW,4.6,-,N/A,,Clear,220,2013-07-10 10:53:00
5:53 AM,50.0,46.9,89,30.02,10.0,SW,8.1,-,N/A,,Clear,220,2013-07-10 11:53:00
6:53 AM,55.0,48.9,80,30.01,10.0,WSW,5.8,-,N/A,,Clear,240,2013-07-10 12:53:00
7:53 AM,64.0,51.1,63,29.99,10.0,WSW,4.6,-,N/A,,Clear,240,2013-07-10 13:53:00
8:53 AM,69.1,50.0,51,29.98,10.0,SSW,6.9,-,N/A,,Clear,200,2013-07-10 14:53:00
9:53 AM,75.0,46.9,37,29.97,10.0,SW,6.9,-,N/A,,Clear,220,2013-07-10 15:53:00
10:53 AM,80.1,43.0,27,29.94,10.0,WSW,8.1,-,N/A,,Clear,240,2013-07-10 16:53:00
11:53 AM,87.1,35.1,16,29.92,10.0,Variable,5.8,-,N/A,,Clear,0,2013-07-10 17:53:00
12:53 PM,88.0,39.9,18,29.91,10.0,West,9.2,-,N/A,,Clear,260,2013-07-10 18:53:00
1:53 PM,91.9,41.0,17,29.88,10.0,SW,11.5,-,N/A,,Clear,220,2013-07-10 19:53:00
2:53 PM,93.9,39.9,15,29.83,10.0,WSW,11.5,26.5,N/A,,Clear,240,2013-07-10 20:53:00
3:53 PM,95.0,39.0,14,29.82,10.0,NW,9.2,-,N/A,,Clear,320,2013-07-10 21:53:00
4:53 PM,95.0,35.1,12,29.79,10.0,SW,15.0,25.3,N/A,,Clear,220,2013-07-10 22:53:00
5:53 PM,95.0,35.1,12,29.77,10.0,South,11.5,-,N/A,,Clear,190,2013-07-10 23:53:00
6:53 PM,91.0,37.0,15,29.75,10.0,South,3.5,-,N/A,,Clear,190,2013-07-11 00:53:00
7:53 PM,88.0,37.9,17,29.72,10.0,NNE,4.6,29.9,0.00,Rain,Light Rain,20,2013-07-11 01:53:00
8:53 PM,82.0,43.0,25,29.71,10.0,SSE,3.5,-,0.00,,Clear,160,2013-07-11 02:53:00
9:53 PM,79.0,42.1,27,29.72,10.0,ESE,6.9,-,N/A,,Clear,120,2013-07-11 03:53:00
10:53 PM,75.0,48.9,40,29.69,10.0,SE,8.1,-,N/A,,Clear,130,2013-07-11 04:53:00
11:53 PM,69.1,46.9,45,29.68,10.0,South,5.8,-,N/A,,Clear,170,2013-07-11 05:53:00